createdAt,value
2019-01-16T00:02:26.922Z,96.40
2019-01-16T00:08:08.947Z,96.80
2019-01-16T00:11:06.579Z,96.50
2019-01-16T00:16:28.726Z,96.50
2019-01-16T00:19:20.479Z,96.30
2019-01-16T00:22:07.126Z,96.30
2019-01-16T00:24:53.381Z,96.30
2019-01-16T00:27:38.477Z,96.10
2019-01-16T00:30:44.295Z,96.40
2019-01-16T00:33:44.437Z,96.10
2019-01-16T00:36:50.718Z,96.20
2019-01-16T00:39:37.320Z,96.50
2019-01-16T00:42:27.920Z,96.20
2019-01-16T00:47:52.572Z,96.40
2019-01-16T00:50:39.132Z,96.30
2019-01-16T00:53:30.285Z,96.30
2019-01-16T01:02:05.049Z,96.00
2019-01-16T01:04:59.058Z,96.20
2019-01-16T01:07:53.276Z,96.40
2019-01-16T01:10:29.926Z,96.20
2019-01-16T01:16:07.411Z,96.60
2019-01-16T01:18:55.562Z,96.50
2019-01-16T01:21:46.180Z,96.30
2019-01-16T01:24:37.129Z,96.50
2019-01-16T01:27:23.769Z,97.00
2019-01-16T01:30:21.192Z,97.00
2019-01-16T01:33:07.756Z,96.90
2019-01-16T01:35:54.313Z,96.90
2019-01-16T01:38:42.470Z,96.70
2019-01-16T01:41:29.084Z,96.70
2019-01-16T01:47:13.674Z,96.90
2019-01-16T01:50:19.997Z,97.10
2019-01-16T01:52:59.978Z,97.10
2019-01-16T01:55:39.130Z,97.00
2019-01-16T01:58:32.580Z,96.90
2019-01-16T02:01:19.168Z,96.90
2019-01-16T02:07:05.406Z,97.10
2019-01-16T02:12:32.288Z,96.90
2019-01-16T02:18:22.325Z,96.80
2019-01-16T02:21:16.367Z,96.80
2019-01-16T02:24:13.331Z,96.70
2019-01-16T02:27:00.018Z,96.40
2019-01-16T02:32:43.465Z,96.50
2019-01-16T02:35:49.811Z,96.50
2019-01-16T02:38:47.094Z,96.60
2019-01-16T02:44:21.798Z,96.60
2019-01-16T02:52:32.121Z,96.40
2019-01-16T03:01:11.784Z,96.80
2019-01-16T03:03:58.728Z,96.80
2019-01-16T03:06:45.841Z,96.90
2019-01-16T03:12:15.126Z,96.80
2019-01-16T03:15:03.104Z,96.60
2019-01-16T03:17:51.560Z,96.60
2019-01-16T03:23:27.537Z,96.60
2019-01-16T03:26:07.305Z,96.60
2019-01-16T03:28:55.460Z,96.60
2019-01-16T03:31:55.728Z,96.50
2019-01-16T03:34:46.609Z,96.40
2019-01-16T03:40:25.731Z,96.40
2019-01-16T03:46:12.728Z,96.40
2019-01-16T03:48:59.642Z,96.40
2019-01-16T03:51:56.998Z,96.30
2019-01-16T04:00:29.175Z,96.40
2019-01-16T04:03:16.309Z,96.40
2019-01-16T04:09:07.204Z,96.40
2019-01-16T04:14:54.826Z,96.30
2019-01-16T04:17:36.220Z,96.10
2019-01-16T04:20:13.493Z,96.10
2019-01-16T04:23:10.448Z,96.10
2019-01-16T04:34:43.387Z,95.70
2019-01-16T04:40:17.805Z,95.40
2019-01-16T04:43:18.250Z,95.40
2019-01-16T04:45:57.779Z,95.20
2019-01-16T04:54:32.302Z,95.00
2019-01-16T04:57:23.788Z,95.00
2019-01-16T05:00:02.716Z,94.90
2019-01-16T05:02:49.131Z,95.10
2019-01-16T05:05:48.943Z,94.90
2019-01-16T05:09:11.131Z,95.10
2019-01-16T05:14:56.438Z,95.10
2019-01-16T05:18:02.977Z,95.20
2019-01-16T05:20:49.350Z,95.30
2019-01-16T05:23:43.149Z,95.20
2019-01-16T05:26:49.444Z,95.10
2019-01-16T05:29:44.788Z,95.40
2019-01-16T05:32:50.972Z,95.50
2019-01-16T05:35:37.637Z,95.60
2019-01-16T05:41:16.265Z,95.40
2019-01-16T05:44:36.860Z,95.40
2019-01-16T05:47:26.879Z,95.30
2019-01-16T05:53:23.745Z,95.40
2019-01-16T05:59:06.925Z,95.10
2019-01-16T06:07:44.170Z,95.00
2019-01-16T06:10:50.589Z,95.20
2019-01-16T06:13:50.775Z,95.20
2019-01-16T06:16:37.439Z,95.20
2019-01-16T06:22:12.728Z,95.30
2019-01-16T06:25:06.795Z,95.10
2019-01-16T06:33:41.024Z,95.30
2019-01-16T06:36:44.496Z,95.30
2019-01-16T06:39:31.370Z,95.30
2019-01-16T06:42:25.208Z,95.30
2019-01-16T06:45:11.550Z,95.00
2019-01-16T06:48:05.435Z,95.10
2019-01-16T06:50:52.456Z,95.10
2019-01-16T06:53:40.180Z,95.00
2019-01-16T06:56:26.911Z,95.10
2019-01-16T06:59:14.666Z,94.90
2019-01-16T07:02:01.162Z,94.90
2019-01-16T07:04:48.179Z,95.00
2019-01-16T07:10:14.600Z,94.80
2019-01-16T07:12:54.197Z,94.70
2019-01-16T07:15:57.507Z,94.60
2019-01-16T07:18:48.297Z,94.30
2019-01-16T07:21:36.242Z,94.30
2019-01-16T07:24:14.272Z,94.30
2019-01-16T07:26:58.968Z,94.20
2019-01-16T07:35:27.328Z,94.10
2019-01-16T07:41:00.993Z,94.00
2019-01-16T07:43:50.087Z,93.90
2019-01-16T07:46:28.777Z,93.80
2019-01-16T07:49:16.727Z,93.80
2019-01-16T07:52:03.559Z,93.70
2019-01-16T07:54:45.389Z,93.70
2019-01-16T07:57:30.369Z,93.70
2019-01-16T08:00:16.756Z,93.50
2019-01-16T08:05:49.996Z,93.60
2019-01-16T08:08:47.973Z,93.50
2019-01-16T08:11:35.913Z,93.30
2019-01-16T08:14:25.264Z,93.20
2019-01-16T08:17:16.538Z,93.10
2019-01-16T08:20:11.671Z,93.10
2019-01-16T08:22:58.581Z,93.40
2019-01-16T08:28:33.074Z,93.00
2019-01-16T08:31:08.621Z,93.00
2019-01-16T08:36:52.619Z,93.00
2019-01-16T08:39:40.401Z,92.90
2019-01-16T08:42:28.540Z,92.90
2019-01-16T08:45:11.668Z,93.00
2019-01-16T08:48:14.648Z,93.00
2019-01-16T08:51:05.659Z,92.90
2019-01-16T08:53:52.147Z,92.90
2019-01-16T08:56:45.852Z,93.00
2019-01-16T09:02:36.031Z,92.50
2019-01-16T09:05:31.606Z,92.60
2019-01-16T09:08:13.289Z,92.50
2019-01-16T09:11:07.630Z,92.60
2019-01-16T09:14:05.969Z,92.50
2019-01-16T09:16:54.146Z,92.10
2019-01-16T09:19:45.371Z,92.20
2019-01-16T09:22:23.599Z,92.10
2019-01-16T09:25:06.338Z,92.10
2019-01-16T09:28:03.225Z,92.00
2019-01-16T09:30:51.376Z,92.10
2019-01-16T09:33:48.503Z,92.00
2019-01-16T09:36:42.640Z,92.10
2019-01-16T09:42:31.476Z,92.10
2019-01-16T09:45:19.548Z,92.00
2019-01-16T09:48:06.268Z,92.50
2019-01-16T09:51:09.497Z,91.10
2019-01-16T09:54:12.991Z,91.40
2019-01-16T09:56:56.839Z,91.70
2019-01-16T09:59:56.904Z,91.30
2019-01-16T10:02:42.638Z,92.00
2019-01-16T10:05:23.729Z,92.00
2019-01-16T10:08:01.006Z,92.10
2019-01-16T10:11:03.965Z,92.20
2019-01-16T10:13:52.009Z,91.50
2019-01-16T10:16:38.681Z,91.90
2019-01-16T10:19:21.246Z,91.90
2019-01-16T10:22:15.933Z,92.30
2019-01-16T10:25:09.828Z,91.60
2019-01-16T10:27:56.407Z,91.90
2019-01-16T10:30:44.612Z,91.20
2019-01-16T10:33:38.450Z,91.10
2019-01-16T10:36:24.960Z,91.00
2019-01-16T10:39:24.544Z,91.10
2019-01-16T10:45:14.039Z,90.20
2019-01-16T10:48:08.608Z,90.80
2019-01-16T10:50:53.114Z,90.30
2019-01-16T10:53:43.739Z,90.40
2019-01-16T10:56:30.288Z,91.20
2019-01-16T10:59:23.901Z,90.70
2019-01-16T11:02:21.307Z,90.00
2019-01-16T11:05:10.255Z,90.10
2019-01-16T11:08:04.287Z,90.50
2019-01-16T11:11:01.657Z,90.50
2019-01-16T11:16:36.201Z,90.80
2019-01-16T11:19:23.214Z,90.90
2019-01-16T11:22:17.354Z,90.90
2019-01-16T11:24:53.687Z,91.00
2019-01-16T11:27:41.639Z,90.70
2019-01-16T11:30:36.178Z,90.10
2019-01-16T11:33:27.124Z,88.00
2019-01-16T11:36:17.478Z,90.70
2019-01-16T11:39:11.391Z,88.90
2019-01-16T11:41:58.337Z,87.80
2019-01-16T11:44:58.208Z,89.40
2019-01-16T11:47:44.843Z,90.50
2019-01-16T11:50:31.817Z,89.80
2019-01-16T11:53:18.855Z,88.10
2019-01-16T11:56:08.522Z,89.20
2019-01-16T11:59:05.146Z,89.90
2019-01-16T12:02:02.270Z,89.50
2019-01-16T12:04:56.361Z,90.20
2019-01-16T12:07:59.468Z,90.10
2019-01-16T12:10:52.226Z,89.50
2019-01-16T12:13:30.510Z,88.50
2019-01-16T12:16:10.317Z,90.40
2019-01-16T12:18:57.126Z,89.40
2019-01-16T12:22:04.575Z,89.30
2019-01-16T12:24:51.052Z,89.20
2019-01-16T12:27:51.195Z,89.40
2019-01-16T12:30:44.526Z,89.70
2019-01-16T12:33:24.250Z,89.80
2019-01-16T12:36:08.379Z,90.10
2019-01-16T12:39:14.217Z,90.50
2019-01-16T12:42:02.137Z,90.00
2019-01-16T12:44:57.617Z,89.30
2019-01-16T12:48:00.174Z,90.00
2019-01-16T12:51:06.305Z,90.40
2019-01-16T12:54:06.516Z,90.20
2019-01-16T12:56:55.697Z,90.00
2019-01-16T12:59:40.082Z,89.30
2019-01-16T13:02:36.544Z,89.90
2019-01-16T13:05:23.842Z,86.70
2019-01-16T13:08:55.504Z,85.10
2019-01-16T13:11:35.425Z,88.80
2019-01-16T13:14:35.703Z,88.80
2019-01-16T13:17:29.633Z,90.00
2019-01-16T13:20:10.748Z,87.00
2019-01-16T13:22:58.644Z,87.80
2019-01-16T13:25:46.618Z,87.40
2019-01-16T13:28:28.954Z,87.20
2019-01-16T13:31:23.521Z,89.60
2019-01-16T13:34:20.256Z,89.50
2019-01-16T13:37:11.125Z,88.20
2019-01-16T13:40:08.206Z,88.20
2019-01-16T13:43:02.247Z,89.60
2019-01-16T13:45:50.024Z,89.80
2019-01-16T13:48:52.856Z,88.50
2019-01-16T13:51:46.378Z,90.00
2019-01-16T13:54:39.557Z,89.30
2019-01-16T13:57:27.422Z,88.50
2019-01-16T14:00:31.942Z,90.20
2019-01-16T14:03:19.900Z,90.70
2019-01-16T14:06:13.649Z,90.50
2019-01-16T14:08:51.894Z,90.10
2019-01-16T14:11:41.005Z,90.20
2019-01-16T14:14:38.146Z,90.10
2019-01-16T14:17:26.150Z,90.40
2019-01-16T14:20:13.993Z,90.90
2019-01-16T14:23:02.096Z,91.20
2019-01-16T14:26:02.328Z,91.50
2019-01-16T14:28:44.695Z,90.50
2019-01-16T14:31:31.554Z,90.50
2019-01-16T14:34:19.923Z,90.40
2019-01-16T14:37:08.001Z,90.90
2019-01-16T14:39:54.433Z,91.20
2019-01-16T14:42:44.948Z,90.70
2019-01-16T14:45:33.124Z,91.80
2019-01-16T14:48:21.166Z,91.70
2019-01-16T14:51:15.133Z,91.20
2019-01-16T14:54:21.435Z,91.50
2019-01-16T14:57:18.563Z,91.80
2019-01-16T15:00:19.726Z,90.80
2019-01-16T15:03:06.494Z,91.00
2019-01-16T15:05:53.310Z,91.40
2019-01-16T15:08:43.937Z,92.20
2019-01-16T15:11:34.794Z,92.50
2019-01-16T15:14:18.205Z,92.30
2019-01-16T15:17:09.002Z,92.40
2019-01-16T15:19:55.405Z,93.20
2019-01-16T15:22:45.953Z,93.20
2019-01-16T15:25:48.947Z,93.40
2019-01-16T15:28:52.410Z,93.90
2019-01-16T15:31:49.611Z,94.30
2019-01-16T15:34:55.775Z,94.30
2019-01-16T15:37:46.605Z,94.50
2019-01-16T15:40:46.660Z,94.80
2019-01-16T15:43:29.262Z,94.90
2019-01-16T15:46:19.880Z,95.00
2019-01-16T15:49:10.446Z,95.10
2019-01-16T15:52:13.597Z,95.30
2019-01-16T15:55:00.229Z,95.70
2019-01-16T15:57:51.596Z,95.70
2019-01-16T16:00:42.567Z,95.80
2019-01-16T16:19:34.958Z,95.80
2019-01-16T16:22:23.171Z,95.90
2019-01-16T16:25:12.149Z,96.30
2019-01-16T16:28:00.311Z,96.20
2019-01-16T16:30:51.530Z,96.60
2019-01-16T16:33:38.246Z,96.50
2019-01-16T16:36:38.562Z,96.70
2019-01-16T16:39:33.931Z,96.80
2019-01-16T16:42:15.039Z,96.70
2019-01-16T16:45:01.932Z,96.70
2019-01-16T16:47:49.675Z,96.80
2019-01-16T16:50:52.802Z,96.80
2019-01-16T16:53:54.103Z,96.90
2019-01-16T16:56:41.327Z,97.00
2019-01-16T16:59:44.563Z,96.70
2019-01-16T17:02:38.589Z,96.60
2019-01-16T17:05:26.976Z,96.80
2019-01-16T17:08:11.645Z,96.80
2019-01-16T17:10:59.237Z,96.90
2019-01-16T17:13:53.189Z,97.00
2019-01-16T17:16:50.279Z,97.00
2019-01-16T17:19:41.018Z,96.70
2019-01-16T17:22:38.398Z,96.70
2019-01-16T17:25:31.534Z,96.80
2019-01-16T17:28:18.179Z,97.00
2019-01-16T17:31:04.754Z,96.90
2019-01-16T17:33:52.566Z,97.00
2019-01-16T17:36:39.139Z,97.00
2019-01-16T17:39:46.195Z,96.90
2019-01-16T17:42:25.975Z,96.90
2019-01-16T17:45:23.051Z,97.00
2019-01-16T17:51:07.675Z,97.10
2019-01-16T17:53:58.551Z,97.20
2019-01-16T17:56:45.127Z,97.10
2019-01-16T17:59:48.764Z,97.20
2019-01-16T18:02:36.559Z,97.20
2019-01-16T18:05:27.869Z,97.20
2019-01-16T18:08:14.931Z,97.30
2019-01-16T18:11:02.816Z,97.40
2019-01-16T18:13:56.402Z,97.40
2019-01-16T18:16:47.286Z,97.40
2019-01-16T18:19:40.853Z,97.40
2019-01-16T18:22:45.109Z,97.30
2019-01-16T18:28:11.263Z,97.40
2019-01-16T18:31:06.100Z,97.30
2019-01-16T18:33:52.339Z,97.40
2019-01-16T18:39:19.378Z,97.40
2019-01-16T18:42:19.524Z,97.50
2019-01-16T18:45:25.786Z,97.60
2019-01-16T18:48:22.518Z,97.50
2019-01-16T18:51:09.170Z,97.60
2019-01-16T18:54:08.851Z,97.60
2019-01-16T18:56:56.875Z,97.60
2019-01-16T18:59:47.361Z,97.50
2019-01-16T19:02:34.387Z,97.40
2019-01-16T19:05:21.547Z,97.50
2019-01-16T19:08:12.020Z,97.60
2019-01-16T19:10:57.866Z,97.60
2019-01-16T19:13:44.888Z,97.70
2019-01-16T19:19:27.389Z,97.90
2019-01-16T19:22:18.328Z,97.90
2019-01-16T19:25:09.153Z,98.00
2019-01-16T19:27:53.278Z,98.20
2019-01-16T19:30:50.436Z,98.00
2019-01-16T19:33:41.518Z,98.10
2019-01-16T19:36:29.542Z,98.10
2019-01-16T19:39:36.056Z,97.90
2019-01-16T19:42:21.290Z,97.90
2019-01-16T19:45:21.463Z,98.00
2019-01-16T19:48:04.909Z,98.10
2019-01-16T19:50:48.360Z,97.90
2019-01-16T19:53:35.008Z,97.90
2019-01-16T19:56:20.683Z,97.90
2019-01-16T19:59:17.451Z,97.90
2019-01-16T20:02:05.444Z,97.80
2019-01-16T20:04:53.350Z,97.70
2019-01-16T20:07:50.415Z,97.80
2019-01-16T20:13:23.299Z,97.90
2019-01-16T20:16:14.020Z,97.80
2019-01-16T20:19:16.979Z,98.00
2019-01-16T20:22:03.703Z,98.10
2019-01-16T20:24:48.591Z,98.10
2019-01-16T20:30:26.284Z,98.00
2019-01-16T20:33:17.072Z,98.10
2019-01-16T20:36:10.935Z,98.10
2019-01-16T20:39:17.136Z,98.10
2019-01-16T20:42:14.769Z,98.10
2019-01-16T20:45:01.280Z,98.20
2019-01-16T20:47:50.542Z,98.30
2019-01-16T20:50:37.220Z,98.30
2019-01-16T20:53:25.343Z,98.50
2019-01-16T20:56:03.991Z,98.40
2019-01-16T20:58:50.552Z,98.40
2019-01-16T21:04:24.918Z,98.30
2019-01-16T21:07:08.289Z,98.40
2019-01-16T21:09:53.471Z,98.50
2019-01-16T21:12:50.643Z,98.40
2019-01-16T21:18:24.523Z,98.40
2019-01-16T21:21:03.187Z,98.40
2019-01-16T21:24:03.327Z,98.20
2019-01-16T21:26:54.185Z,98.40
2019-01-16T21:29:40.898Z,98.30
2019-01-16T21:32:38.307Z,98.30
2019-01-16T21:35:29.610Z,98.30
2019-01-16T21:38:32.363Z,98.30
2019-01-16T21:41:17.293Z,98.30
2019-01-16T21:46:45.936Z,98.30
2019-01-16T21:49:23.447Z,98.40
2019-01-16T21:52:04.612Z,98.40
2019-01-16T21:54:40.987Z,98.40
2019-01-16T21:57:30.116Z,98.20
2019-01-16T22:00:27.069Z,98.20
2019-01-16T22:03:27.263Z,98.10
2019-01-16T22:06:14.768Z,98.10
2019-01-16T22:09:02.702Z,98.10
2019-01-16T22:11:58.129Z,98.20
2019-01-16T22:14:46.141Z,98.30
2019-01-16T22:17:30.727Z,98.30
2019-01-16T22:20:27.748Z,98.50
2019-01-16T22:23:11.590Z,98.40
2019-01-16T22:26:08.022Z,98.40
2019-01-16T22:28:50.269Z,98.50
2019-01-16T22:31:44.187Z,98.70
2019-01-16T22:34:47.377Z,98.80
2019-01-16T22:37:47.521Z,99.00
2019-01-16T22:40:35.488Z,99.10
2019-01-16T22:46:02.121Z,98.90
2019-01-16T22:51:36.767Z,98.70
2019-01-16T22:54:23.128Z,98.70
2019-01-16T22:57:11.109Z,99.00
2019-01-16T23:02:31.482Z,99.20
2019-01-16T23:05:28.386Z,99.40
2019-01-16T23:08:08.257Z,99.50
2019-01-16T23:10:55.146Z,99.50
2019-01-16T23:13:48.626Z,99.70
2019-01-16T23:16:39.576Z,99.70
2019-01-16T23:19:34.592Z,99.80
2019-01-16T23:22:22.563Z,99.60
2019-01-16T23:28:20.633Z,99.50
2019-01-16T23:31:01.861Z,99.80
2019-01-16T23:33:48.345Z,99.60
2019-01-16T23:39:12.610Z,99.50
2019-01-16T23:42:03.261Z,99.40
2019-01-16T23:45:02.179Z,99.30
2019-01-16T23:47:55.803Z,99.50
2019-01-16T23:50:49.792Z,99.30
2019-01-16T23:53:43.542Z,99.20
2019-01-16T23:56:26.965Z,99.40
2019-01-16T23:59:14.093Z,99.40
